sensor_id;sensor_type;location;lat;lon;timestamp;pressure;altitude;pressure_sealevel;temperature;humidity
31357;BME280;60001;48.404;11.738;2022-12-08T00:01:28;95814.97;;;2.93;78.00
31357;BME280;60001;48.404;11.738;2022-12-08T00:03:02;95818.38;;;2.93;77.75
31357;BME280;60001;48.404;11.738;2022-12-08T00:04:34;95809.75;;;2.93;77.65
31357;BME280;60001;48.404;11.738;2022-12-08T00:06:28;95816.78;;;2.92;78.09
31357;BME280;60001;48.404;11.738;2022-12-08T00:08:17;95815.16;;;2.91;77.56
31357;BME280;60001;48.404;11.738;2022-12-08T00:10:08;95819.59;;;2.91;77.69
31357;BME280;60001;48.404;11.738;2022-12-08T00:11:39;95816.78;;;2.92;78.11
31357;BME280;60001;48.404;11.738;2022-12-08T00:13:11;95815.16;;;2.91;78.25
31357;BME280;60001;48.404;11.738;2022-12-08T00:14:45;95824.59;;;2.92;77.97
31357;BME280;60001;48.404;11.738;2022-12-08T00:16:18;95814.19;;;2.92;78.11
31357;BME280;60001;48.404;11.738;2022-12-08T00:17:49;95818.38;;;2.93;78.46
31357;BME280;60001;48.404;11.738;2022-12-08T00:19:23;95809.75;;;2.93;77.90
31357;BME280;60001;48.404;11.738;2022-12-08T00:20:55;95815.16;;;2.91;78.02
31357;BME280;60001;48.404;11.738;2022-12-08T00:22:26;95808.56;;;2.89;78.13
31357;BME280;60001;48.404;11.738;2022-12-08T00:23:58;95807.56;;;2.90;77.54
31357;BME280;60001;48.404;11.738;2022-12-08T00:25:30;95803.59;;;2.87;77.55
31357;BME280;60001;48.404;11.738;2022-12-08T00:27:05;95790.78;;;2.86;77.65
31357;BME280;60001;48.404;11.738;2022-12-08T00:28:37;95806.41;;;2.86;77.57
31357;BME280;60001;48.404;11.738;2022-12-08T00:30:09;95805.81;;;2.84;78.20
31357;BME280;60001;48.404;11.738;2022-12-08T00:31:41;95806.03;;;2.82;77.91
31357;BME280;60001;48.404;11.738;2022-12-08T00:33:13;95805.00;;;2.83;78.41
31357;BME280;60001;48.404;11.738;2022-12-08T00:34:46;95804.22;;;2.83;78.54
31357;BME280;60001;48.404;11.738;2022-12-08T00:36:18;95805.00;;;2.83;78.24
31357;BME280;60001;48.404;11.738;2022-12-08T00:37:49;95799.22;;;2.81;78.31
31357;BME280;60001;48.404;11.738;2022-12-08T00:39:20;95799.44;;;2.80;78.49
31357;BME280;60001;48.404;11.738;2022-12-08T00:40:52;95793.44;;;2.79;77.84
31357;BME280;60001;48.404;11.738;2022-12-08T00:42:23;95791.81;;;2.78;78.30
31357;BME280;60001;48.404;11.738;2022-12-08T00:43:55;95792.41;;;2.80;78.18
31357;BME280;60001;48.404;11.738;2022-12-08T00:45:26;95797.03;;;2.78;78.12
31357;BME280;60001;48.404;11.738;2022-12-08T00:46:58;95792.03;;;2.77;77.95
31357;BME280;60001;48.404;11.738;2022-12-08T00:48:29;95793.84;;;2.76;78.33
31357;BME280;60001;48.404;11.738;2022-12-08T00:50:03;95792.84;;;2.77;78.60
31357;BME280;60001;48.404;11.738;2022-12-08T00:51:36;95796.25;;;2.78;78.52
31357;BME280;60001;48.404;11.738;2022-12-08T00:53:06;95794.22;;;2.80;78.08
31357;BME280;60001;48.404;11.738;2022-12-08T00:54:38;95793.00;;;2.82;78.49
31357;BME280;60001;48.404;11.738;2022-12-08T00:56:09;95785.19;;;2.82;78.22
31357;BME280;60001;48.404;11.738;2022-12-08T00:57:41;95783.38;;;2.83;78.30
31357;BME280;60001;48.404;11.738;2022-12-08T00:59:13;95782.56;;;2.82;77.86
31357;BME280;60001;48.404;11.738;2022-12-08T01:00:47;95793.44;;;2.79;78.21
31357;BME280;60001;48.404;11.738;2022-12-08T01:02:19;95789.22;;;2.78;77.74
31357;BME280;60001;48.404;11.738;2022-12-08T01:03:51;95786.59;;;2.78;77.72
31357;BME280;60001;48.404;11.738;2022-12-08T01:05:24;95789.22;;;2.78;77.64
31357;BME280;60001;48.404;11.738;2022-12-08T01:06:56;95783.19;;;2.78;77.80
31357;BME280;60001;48.404;11.738;2022-12-08T01:08:28;95784.81;;;2.79;77.81
31357;BME280;60001;48.404;11.738;2022-12-08T01:09:59;95778.78;;;2.78;77.76
31357;BME280;60001;48.404;11.738;2022-12-08T01:11:31;95780.41;;;2.79;78.37
31357;BME280;60001;48.404;11.738;2022-12-08T01:13:03;95780.41;;;2.79;77.67
31357;BME280;60001;48.404;11.738;2022-12-08T01:14:36;95777.06;;;2.72;77.61
31357;BME280;60001;48.404;11.738;2022-12-08T01:16:08;95783.19;;;2.78;77.75
31357;BME280;60001;48.404;11.738;2022-12-08T01:17:40;95786.59;;;2.78;78.53
31357;BME280;60001;48.404;11.738;2022-12-08T01:19:13;95777.78;;;2.79;78.67
31357;BME280;60001;48.404;11.738;2022-12-08T01:20:47;95782.78;;;2.81;78.43
31357;BME280;60001;48.404;11.738;2022-12-08T01:22:19;95781.78;;;2.82;78.21
31357;BME280;60001;48.404;11.738;2022-12-08T01:23:49;95778.94;;;2.83;77.87
31357;BME280;60001;48.404;11.738;2022-12-08T01:25:21;95778.38;;;2.81;78.23
31357;BME280;60001;48.404;11.738;2022-12-08T01:26:53;95783.75;;;2.86;78.43
31357;BME280;60001;48.404;11.738;2022-12-08T01:28:25;95785.56;;;2.86;78.05
31357;BME280;60001;48.404;11.738;2022-12-08T01:29:55;95779.75;;;2.84;78.16
31357;BME280;60001;48.404;11.738;2022-12-08T01:31:27;95770.53;;;2.81;78.34
31357;BME280;60001;48.404;11.738;2022-12-08T01:32:59;95780.53;;;2.84;77.76
31357;BME280;60001;48.404;11.738;2022-12-08T01:34:32;95780.53;;;2.84;78.36
31357;BME280;60001;48.404;11.738;2022-12-08T01:36:06;95770.31;;;2.83;77.80
31357;BME280;60001;48.404;11.738;2022-12-08T01:37:38;95780.75;;;2.83;78.07
31357;BME280;60001;48.404;11.738;2022-12-08T01:39:18;95771.34;;;2.82;78.35
31357;BME280;60001;48.404;11.738;2022-12-08T01:40:50;95770.31;;;2.83;77.97
31357;BME280;60001;48.404;11.738;2022-12-08T01:42:22;95772.72;;;2.84;78.38
31357;BME280;60001;48.404;11.738;2022-12-08T01:43:58;95766.50;;;2.85;78.05
31357;BME280;60001;48.404;11.738;2022-12-08T01:45:30;95771.50;;;2.87;78.37
31357;BME280;60001;48.404;11.738;2022-12-08T01:47:03;95775.69;;;2.88;78.16
31357;BME280;60001;48.404;11.738;2022-12-08T01:48:35;95770.25;;;2.89;78.41
31357;BME280;60001;48.404;11.738;2022-12-08T01:50:10;95769.25;;;2.90;78.63
31357;BME280;60001;48.404;11.738;2022-12-08T01:51:50;95779.44;;;2.92;78.74
31357;BME280;60001;48.404;11.738;2022-12-08T01:53:27;95775.25;;;2.91;78.32
31357;BME280;60001;48.404;11.738;2022-12-08T01:55:07;95775.63;;;2.94;78.85
31357;BME280;60001;48.404;11.738;2022-12-08T01:56:47;95774.03;;;2.93;78.29
31357;BME280;60001;48.404;11.738;2022-12-08T01:58:27;95767.66;;;2.89;78.00
31357;BME280;60001;48.404;11.738;2022-12-08T02:00:04;95760.47;;;2.85;78.03
31357;BME280;60001;48.404;11.738;2022-12-08T02:01:36;95754.91;;;2.81;78.31
31357;BME280;60001;48.404;11.738;2022-12-08T02:03:15;95749.75;;;2.74;78.57
31357;BME280;60001;48.404;11.738;2022-12-08T02:04:48;95749.31;;;2.78;78.70
31357;BME280;60001;48.404;11.738;2022-12-08T02:06:20;95748.31;;;2.79;78.69
31357;BME280;60001;48.404;11.738;2022-12-08T02:07:55;95734.56;;;2.71;78.05
31357;BME280;60001;48.404;11.738;2022-12-08T02:09:27;95740.91;;;2.75;78.58
31357;BME280;60001;48.404;11.738;2022-12-08T02:10:59;95739.31;;;2.74;78.79
31357;BME280;60001;48.404;11.738;2022-12-08T02:12:31;95741.94;;;2.74;78.96
31357;BME280;60001;48.404;11.738;2022-12-08T02:14:06;95739.31;;;2.74;78.99
31357;BME280;60001;48.404;11.738;2022-12-08T02:15:55;95740.56;;;2.72;78.55
31357;BME280;60001;48.404;11.738;2022-12-08T02:17:44;95734.75;;;2.70;78.78
31357;BME280;60001;48.404;11.738;2022-12-08T02:21:30;95728.00;;;2.62;78.65
31357;BME280;60001;48.404;11.738;2022-12-08T02:23:17;95728.44;;;2.59;78.66
31357;BME280;60001;48.404;11.738;2022-12-08T02:25:05;95728.88;;;2.56;78.73
31357;BME280;60001;48.404;11.738;2022-12-08T02:27:10;95728.50;;;2.53;78.65
31357;BME280;60001;48.404;11.738;2022-12-08T02:31:04;95729.94;;;2.48;78.59
31357;BME280;60001;48.404;11.738;2022-12-08T02:34:55;95730.06;;;2.35;79.60
31357;BME280;60001;48.404;11.738;2022-12-08T02:36:36;95734.84;;;2.38;79.05
31357;BME280;60001;48.404;11.738;2022-12-08T02:38:20;95720.59;;;2.41;79.85
31357;BME280;60001;48.404;11.738;2022-12-08T02:40:02;95714.59;;;2.40;79.31
31357;BME280;60001;48.404;11.738;2022-12-08T02:41:44;95715.38;;;2.41;79.28
31357;BME280;60001;48.404;11.738;2022-12-08T02:43:26;95717.19;;;2.40;78.93
31357;BME280;60001;48.404;11.738;2022-12-08T02:45:05;95713.56;;;2.41;79.66
31357;BME280;60001;48.404;11.738;2022-12-08T02:46:47;95711.97;;;2.40;78.89
31357;BME280;60001;48.404;11.738;2022-12-08T02:48:21;95717.41;;;2.39;79.53
31357;BME280;60001;48.404;11.738;2022-12-08T02:49:56;95709.81;;;2.37;79.54
31357;BME280;60001;48.404;11.738;2022-12-08T02:51:27;95710.00;;;2.36;79.17
31357;BME280;60001;48.404;11.738;2022-12-08T02:52:59;95716.44;;;2.33;78.73
31357;BME280;60001;48.404;11.738;2022-12-08T02:54:33;95703.88;;;2.30;79.31
31357;BME280;60001;48.404;11.738;2022-12-08T02:56:30;95706.31;;;2.25;79.35
31357;BME280;60001;48.404;11.738;2022-12-08T03:00:16;95707.31;;;2.24;79.62
31357;BME280;60001;48.404;11.738;2022-12-08T03:02:03;95707.72;;;2.21;79.18
31357;BME280;60001;48.404;11.738;2022-12-08T03:03:46;95706.16;;;2.20;78.95
31357;BME280;60001;48.404;11.738;2022-12-08T03:05:39;95705.13;;;2.21;79.62
31357;BME280;60001;48.404;11.738;2022-12-08T03:07:22;95713.75;;;2.22;78.94
31357;BME280;60001;48.404;11.738;2022-12-08T03:09:01;95703.53;;;2.20;79.42
31357;BME280;60001;48.404;11.738;2022-12-08T03:10:39;95702.16;;;2.17;78.90
31357;BME280;60001;48.404;11.738;2022-12-08T03:12:17;95701.56;;;2.15;79.69
31357;BME280;60001;48.404;11.738;2022-12-08T03:13:55;95702.97;;;2.18;79.84
31357;BME280;60001;48.404;11.738;2022-12-08T03:15:30;95704.56;;;2.19;80.20
31357;BME280;60001;48.404;11.738;2022-12-08T03:17:04;95700.94;;;2.20;79.97
31357;BME280;60001;48.404;11.738;2022-12-08T03:18:42;95707.72;;;2.21;79.33
31357;BME280;60001;48.404;11.738;2022-12-08T03:20:20;95695.94;;;2.18;79.79
31357;BME280;60001;48.404;11.738;2022-12-08T03:21:57;95696.53;;;2.20;80.21
31357;BME280;60001;48.404;11.738;2022-12-08T03:23:35;95702.13;;;2.24;80.01
31357;BME280;60001;48.404;11.738;2022-12-08T03:25:09;95706.59;;;2.17;80.82
31357;BME280;60001;48.404;11.738;2022-12-08T03:26:47;95704.25;;;2.09;80.86
31357;BME280;60001;48.404;11.738;2022-12-08T03:28:21;95695.56;;;2.15;81.10
31357;BME280;60001;48.404;11.738;2022-12-08T03:29:54;95687.97;;;2.13;81.22
31357;BME280;60001;48.404;11.738;2022-12-08T03:31:31;95693.13;;;2.20;80.97
31357;BME280;60001;48.404;11.738;2022-12-08T03:33:08;95691.09;;;2.22;81.16
31357;BME280;60001;48.404;11.738;2022-12-08T03:34:47;95686.16;;;2.14;81.27
31357;BME280;60001;48.404;11.738;2022-12-08T03:36:19;95690.72;;;2.18;81.07
31357;BME280;60001;48.404;11.738;2022-12-08T03:38:01;95679.75;;;2.16;80.90
31357;BME280;60001;48.404;11.738;2022-12-08T03:39:33;95680.53;;;2.17;80.76
31357;BME280;60001;48.404;11.738;2022-12-08T03:41:05;95675.69;;;2.20;80.82
31357;BME280;60001;48.404;11.738;2022-12-08T03:42:47;95676.28;;;2.23;81.52
31357;BME280;60001;48.404;11.738;2022-12-08T03:44:19;95676.06;;;2.24;81.37
31357;BME280;60001;48.404;11.738;2022-12-08T03:45:51;95678.44;;;2.26;81.33
31357;BME280;60001;48.404;11.738;2022-12-08T03:47:23;95680.84;;;2.27;81.45
31357;BME280;60001;48.404;11.738;2022-12-08T03:48:55;95681.41;;;2.29;81.09
31357;BME280;60001;48.404;11.738;2022-12-08T03:50:27;95688.50;;;2.22;81.54
31357;BME280;60001;48.404;11.738;2022-12-08T03:51:57;95688.06;;;2.25;80.96
31357;BME280;60001;48.404;11.738;2022-12-08T03:53:31;95682.88;;;2.25;81.28
31357;BME280;60001;48.404;11.738;2022-12-08T03:55:02;95680.84;;;2.27;81.52
31357;BME280;60001;48.404;11.738;2022-12-08T03:56:36;95676.41;;;2.28;81.21
31357;BME280;60001;48.404;11.738;2022-12-08T03:58:08;95677.03;;;2.30;81.27
31357;BME280;60001;48.404;11.738;2022-12-08T03:59:39;95672.06;;;2.22;80.96
31357;BME280;60001;48.404;11.738;2022-12-08T04:01:11;95678.00;;;2.29;80.95
31357;BME280;60001;48.404;11.738;2022-12-08T04:02:42;95676.19;;;2.29;81.11
31357;BME280;60001;48.404;11.738;2022-12-08T04:04:14;95671.81;;;2.30;81.14
31357;BME280;60001;48.404;11.738;2022-12-08T04:05:45;95674.19;;;2.31;81.33
31357;BME280;60001;48.404;11.738;2022-12-08T04:07:17;95682.38;;;2.35;81.34
31357;BME280;60001;48.404;11.738;2022-12-08T04:08:51;95677.94;;;2.35;80.65
31357;BME280;60001;48.404;11.738;2022-12-08T04:10:22;95675.56;;;2.34;81.02
31357;BME280;60001;48.404;11.738;2022-12-08T04:11:54;95677.81;;;2.30;81.29
31357;BME280;60001;48.404;11.738;2022-12-08T04:13:26;95679.41;;;2.31;80.73
31357;BME280;60001;48.404;11.738;2022-12-08T04:14:57;95678.97;;;2.34;81.34
31357;BME280;60001;48.404;11.738;2022-12-08T04:16:28;95675.34;;;2.35;80.95
31357;BME280;60001;48.404;11.738;2022-12-08T04:18:00;95681.56;;;2.34;81.33
31357;BME280;60001;48.404;11.738;2022-12-08T04:19:31;95674.53;;;2.35;80.77
31357;BME280;60001;48.404;11.738;2022-12-08T04:21:03;95673.53;;;2.36;80.86
31357;BME280;60001;48.404;11.738;2022-12-08T04:22:35;95671.38;;;2.33;80.79
31357;BME280;60001;48.404;11.738;2022-12-08T04:24:08;95673.19;;;2.32;81.09
31357;BME280;60001;48.404;11.738;2022-12-08T04:25:40;95670.56;;;2.32;80.79
31357;BME280;60001;48.404;11.738;2022-12-08T04:27:11;95676.34;;;2.34;80.67
31357;BME280;60001;48.404;11.738;2022-12-08T04:28:43;95680.56;;;2.35;81.38
31357;BME280;60001;48.404;11.738;2022-12-08T04:30:15;95673.53;;;2.36;80.92
31357;BME280;60001;48.404;11.738;2022-12-08T04:31:46;95680.16;;;2.38;80.87
31357;BME280;60001;48.404;11.738;2022-12-08T04:33:18;95679.13;;;2.39;80.68
31357;BME280;60001;48.404;11.738;2022-12-08T04:34:50;95677.31;;;2.40;81.29
31357;BME280;60001;48.404;11.738;2022-12-08T04:36:22;95675.72;;;2.39;81.23
31357;BME280;60001;48.404;11.738;2022-12-08T04:37:52;95678.34;;;2.39;81.21
31357;BME280;60001;48.404;11.738;2022-12-08T04:39:26;95672.31;;;2.38;81.24
31357;BME280;60001;48.404;11.738;2022-12-08T04:40:57;95674.13;;;2.38;81.25
31357;BME280;60001;48.404;11.738;2022-12-08T04:42:29;95677.31;;;2.40;80.94
31357;BME280;60001;48.404;11.738;2022-12-08T04:44:00;95671.88;;;2.41;81.05
31357;BME280;60001;48.404;11.738;2022-12-08T04:45:32;95667.91;;;2.39;80.95
31357;BME280;60001;48.404;11.738;2022-12-08T04:47:03;95664.28;;;2.40;81.48
31357;BME280;60001;48.404;11.738;2022-12-08T04:48:36;95670.50;;;2.39;81.46
31357;BME280;60001;48.404;11.738;2022-12-08T04:50:09;95666.44;;;2.43;81.28
31357;BME280;60001;48.404;11.738;2022-12-08T04:51:41;95673.84;;;2.46;81.47
31357;BME280;60001;48.404;11.738;2022-12-08T04:53:14;95676.22;;;2.47;80.99
31357;BME280;60001;48.404;11.738;2022-12-08T04:54:47;95667.41;;;2.48;81.20
31357;BME280;60001;48.404;11.738;2022-12-08T04:56:18;95671.41;;;2.51;80.70
31357;BME280;60001;48.404;11.738;2022-12-08T04:57:50;95669.00;;;2.50;81.12
31357;BME280;60001;48.404;11.738;2022-12-08T04:59:22;95668.41;;;2.47;80.62
31357;BME280;60001;48.404;11.738;2022-12-08T05:00:53;95671.47;;;2.44;80.46
31357;BME280;60001;48.404;11.738;2022-12-08T05:02:25;95654.88;;;2.39;80.86
31357;BME280;60001;48.404;11.738;2022-12-08T05:03:57;95665.72;;;2.36;81.06
31357;BME280;60001;48.404;11.738;2022-12-08T05:05:29;95659.13;;;2.33;80.43
31357;BME280;60001;48.404;11.738;2022-12-08T05:07:00;95655.16;;;2.31;80.52
31357;BME280;60001;48.404;11.738;2022-12-08T05:08:32;95657.56;;;2.32;80.89
31357;BME280;60001;48.404;11.738;2022-12-08T05:10:06;95658.13;;;2.34;81.34
31357;BME280;60001;48.404;11.738;2022-12-08T05:11:38;95657.91;;;2.36;81.49
31357;BME280;60001;48.404;11.738;2022-12-08T05:13:11;95660.88;;;2.39;81.11
31357;BME280;60001;48.404;11.738;2022-12-08T05:14:43;95658.84;;;2.41;81.57
31357;BME280;60001;48.404;11.738;2022-12-08T05:16:15;95661.47;;;2.41;81.17
31357;BME280;60001;48.404;11.738;2022-12-08T05:17:47;95663.28;;;2.41;80.57
31357;BME280;60001;48.404;11.738;2022-12-08T05:19:18;95659.88;;;2.40;81.13
31357;BME280;60001;48.404;11.738;2022-12-08T05:20:50;95661.47;;;2.41;80.56
31357;BME280;60001;48.404;11.738;2022-12-08T05:22:22;95660.66;;;2.41;81.17
31357;BME280;60001;48.404;11.738;2022-12-08T05:23:54;95654.44;;;2.42;81.02
31357;BME280;60001;48.404;11.738;2022-12-08T05:25:27;95659.88;;;2.40;81.20
31357;BME280;60001;48.404;11.738;2022-12-08T05:26:59;95660.44;;;2.42;81.35
31357;BME280;60001;48.404;11.738;2022-12-08T05:28:30;95662.06;;;2.43;81.16
31357;BME280;60001;48.404;11.738;2022-12-08T05:30:03;95661.47;;;2.41;81.04
31357;BME280;60001;48.404;11.738;2022-12-08T05:31:35;95665.09;;;2.40;81.23
31357;BME280;60001;48.404;11.738;2022-12-08T05:33:07;95651.25;;;2.40;81.46
31357;BME280;60001;48.404;11.738;2022-12-08T05:34:39;95657.25;;;2.40;81.48
31357;BME280;60001;48.404;11.738;2022-12-08T05:36:13;95647.88;;;2.39;80.56
31357;BME280;60001;48.404;11.738;2022-12-08T05:37:45;95651.25;;;2.40;80.54
31357;BME280;60001;48.404;11.738;2022-12-08T05:39:17;95648.66;;;2.40;80.68
31357;BME280;60001;48.404;11.738;2022-12-08T05:40:50;95651.03;;;2.41;80.73
31357;BME280;60001;48.404;11.738;2022-12-08T05:42:22;95653.66;;;2.41;80.83
31357;BME280;60001;48.404;11.738;2022-12-08T05:43:54;95650.25;;;2.41;81.04
31357;BME280;60001;48.404;11.738;2022-12-08T05:45:26;95645.03;;;2.41;81.25
31357;BME280;60001;48.404;11.738;2022-12-08T05:46:57;95644.00;;;2.42;80.83
31357;BME280;60001;48.404;11.738;2022-12-08T05:48:29;95650.81;;;2.43;81.25
31357;BME280;60001;48.404;11.738;2022-12-08T05:50:01;95638.63;;;2.43;80.78
31357;BME280;60001;48.404;11.738;2022-12-08T05:51:33;95645.59;;;2.43;80.64
31357;BME280;60001;48.404;11.738;2022-12-08T05:53:05;95634.59;;;2.41;81.14
31357;BME280;60001;48.404;11.738;2022-12-08T05:54:37;95644.63;;;2.44;81.39
31357;BME280;60001;48.404;11.738;2022-12-08T05:56:10;95639.41;;;2.44;81.53
31357;BME280;60001;48.404;11.738;2022-12-08T05:57:42;95639.19;;;2.45;81.08
31357;BME280;60001;48.404;11.738;2022-12-08T05:59:13;95636.00;;;2.43;81.05
31357;BME280;60001;48.404;11.738;2022-12-08T06:00:47;95629.63;;;2.39;80.88
31357;BME280;60001;48.404;11.738;2022-12-08T06:02:19;95630.19;;;2.41;81.54
31357;BME280;60001;48.404;11.738;2022-12-08T06:03:51;95639.03;;;2.40;80.78
31357;BME280;60001;48.404;11.738;2022-12-08T06:05:22;95633.03;;;2.40;81.24
31357;BME280;60001;48.404;11.738;2022-12-08T06:06:54;95630.19;;;2.41;81.72
31357;BME280;60001;48.404;11.738;2022-12-08T06:08:26;95633.59;;;2.42;81.33
31357;BME280;60001;48.404;11.738;2022-12-08T06:09:57;95627.59;;;2.41;81.00
31357;BME280;60001;48.404;11.738;2022-12-08T06:11:31;95633.41;;;2.43;81.84
31357;BME280;60001;48.404;11.738;2022-12-08T06:13:03;95631.38;;;2.45;82.06
31357;BME280;60001;48.404;11.738;2022-12-08T06:14:35;95639.53;;;2.49;81.58
31357;BME280;60001;48.404;11.738;2022-12-08T06:16:07;95636.94;;;2.49;82.00
31357;BME280;60001;48.404;11.738;2022-12-08T06:17:39;95637.72;;;2.50;81.85
31357;BME280;60001;48.404;11.738;2022-12-08T06:19:11;95637.72;;;2.50;82.06
31357;BME280;60001;48.404;11.738;2022-12-08T06:20:43;95636.13;;;2.48;81.58
31357;BME280;60001;48.404;11.738;2022-12-08T06:22:15;95631.38;;;2.45;81.38
31357;BME280;60001;48.404;11.738;2022-12-08T06:23:48;95635.56;;;2.46;81.86
31357;BME280;60001;48.404;11.738;2022-12-08T06:25:20;95637.94;;;2.48;81.81
31357;BME280;60001;48.404;11.738;2022-12-08T06:26:53;95633.53;;;2.48;81.77
31357;BME280;60001;48.404;11.738;2022-12-08T06:28:25;95635.91;;;2.50;81.52
31357;BME280;60001;48.404;11.738;2022-12-08T06:29:56;95639.13;;;2.52;82.02
31357;BME280;60001;48.404;11.738;2022-12-08T06:31:28;95641.50;;;2.54;81.82
31357;BME280;60001;48.404;11.738;2022-12-08T06:32:59;95637.31;;;2.53;81.24
31357;BME280;60001;48.404;11.738;2022-12-08T06:34:31;95631.53;;;2.51;81.05
31357;BME280;60001;48.404;11.738;2022-12-08T06:36:04;95635.13;;;2.50;81.61
31357;BME280;60001;48.404;11.738;2022-12-08T06:37:36;95635.34;;;2.48;81.03
31357;BME280;60001;48.404;11.738;2022-12-08T06:39:08;95631.16;;;2.47;81.84
31357;BME280;60001;48.404;11.738;2022-12-08T06:40:39;95627.97;;;2.45;81.71
31357;BME280;60001;48.404;11.738;2022-12-08T06:42:12;95633.41;;;2.43;81.81
31357;BME280;60001;48.404;11.738;2022-12-08T06:44:09;95632.38;;;2.44;81.80
31357;BME280;60001;48.404;11.738;2022-12-08T06:45:41;95637.16;;;2.47;81.56
31357;BME280;60001;48.404;11.738;2022-12-08T06:47:12;95636.13;;;2.48;81.70
31357;BME280;60001;48.404;11.738;2022-12-08T06:48:44;95637.72;;;2.50;81.63
31357;BME280;60001;48.404;11.738;2022-12-08T06:50:16;95632.50;;;2.50;81.81
31357;BME280;60001;48.404;11.738;2022-12-08T06:51:47;95636.50;;;2.52;82.14
31357;BME280;60001;48.404;11.738;2022-12-08T06:53:19;95639.69;;;2.54;82.30
31357;BME280;60001;48.404;11.738;2022-12-08T06:54:51;95633.47;;;2.55;81.70
31357;BME280;60001;48.404;11.738;2022-12-08T06:56:23;95630.84;;;2.55;82.12
31357;BME280;60001;48.404;11.738;2022-12-08T06:57:58;95641.28;;;2.55;81.44
31357;BME280;60001;48.404;11.738;2022-12-08T06:59:30;95640.47;;;2.55;81.66
31357;BME280;60001;48.404;11.738;2022-12-08T07:01:06;95631.88;;;2.54;81.40
31357;BME280;60001;48.404;11.738;2022-12-08T07:02:41;95633.09;;;2.52;81.81
31357;BME280;60001;48.404;11.738;2022-12-08T07:04:13;95625.63;;;2.55;81.48
31357;BME280;60001;48.404;11.738;2022-12-08T07:05:45;95635.84;;;2.57;82.04
31357;BME280;60001;48.404;11.738;2022-12-08T07:07:17;95637.88;;;2.55;82.03
31357;BME280;60001;48.404;11.738;2022-12-08T07:08:49;95635.78;;;2.45;82.03
31357;BME280;60001;48.404;11.738;2022-12-08T07:10:21;95636.00;;;2.43;82.07
31357;BME280;60001;48.404;11.738;2022-12-08T07:11:53;95626.00;;;2.40;82.39
31357;BME280;60001;48.404;11.738;2022-12-08T07:13:26;95632.16;;;2.46;82.31
31357;BME280;60001;48.404;11.738;2022-12-08T07:14:57;95632.72;;;2.48;82.33
31357;BME280;60001;48.404;11.738;2022-12-08T07:16:29;95636.72;;;2.51;82.14
31357;BME280;60001;48.404;11.738;2022-12-08T07:18:01;95627.59;;;2.41;82.06
31357;BME280;60001;48.404;11.738;2022-12-08T07:19:33;95641.34;;;2.48;81.93
31357;BME280;60001;48.404;11.738;2022-12-08T07:21:06;95636.94;;;2.49;82.26
31357;BME280;60001;48.404;11.738;2022-12-08T07:22:38;95636.94;;;2.49;82.34
31357;BME280;60001;48.404;11.738;2022-12-08T07:24:10;95638.50;;;2.50;82.57
31357;BME280;60001;48.404;11.738;2022-12-08T07:25:42;95641.50;;;2.54;82.21
31357;BME280;60001;48.404;11.738;2022-12-08T07:27:13;95643.09;;;2.55;82.40
31357;BME280;60001;48.404;11.738;2022-12-08T07:28:46;95652.16;;;2.52;82.02
31357;BME280;60001;48.404;11.738;2022-12-08T07:30:19;95650.41;;;2.46;82.34
31357;BME280;60001;48.404;11.738;2022-12-08T07:31:51;95643.38;;;2.46;82.20
31357;BME280;60001;48.404;11.738;2022-12-08T07:33:22;95643.59;;;2.45;81.82
31357;BME280;60001;48.404;11.738;2022-12-08T07:34:55;95643.59;;;2.45;81.85
31357;BME280;60001;48.404;11.738;2022-12-08T07:36:27;95644.19;;;2.47;82.15
31357;BME280;60001;48.404;11.738;2022-12-08T07:37:58;95636.81;;;2.44;82.26
31357;BME280;60001;48.404;11.738;2022-12-08T07:39:30;95636.94;;;2.49;82.52
31357;BME280;60001;48.404;11.738;2022-12-08T07:41:04;95644.56;;;2.51;82.20
31357;BME280;60001;48.404;11.738;2022-12-08T07:42:36;95639.47;;;2.56;82.53
31357;BME280;60001;48.404;11.738;2022-12-08T07:44:10;95641.28;;;2.55;82.84
31357;BME280;60001;48.404;11.738;2022-12-08T07:45:42;95649.81;;;2.62;82.87
31357;BME280;60001;48.404;11.738;2022-12-08T07:47:13;95650.19;;;2.66;82.48
31357;BME280;60001;48.404;11.738;2022-12-08T07:48:46;95648.16;;;2.68;82.64
31357;BME280;60001;48.404;11.738;2022-12-08T07:50:18;95647.50;;;2.72;82.95
31357;BME280;60001;48.404;11.738;2022-12-08T07:51:49;95649.44;;;2.77;82.34
31357;BME280;60001;48.404;11.738;2022-12-08T07:53:21;95645.81;;;2.78;82.67
31357;BME280;60001;48.404;11.738;2022-12-08T07:54:53;95644.84;;;2.79;82.32
31357;BME280;60001;48.404;11.738;2022-12-08T07:56:24;95648.81;;;2.82;82.52
31357;BME280;60001;48.404;11.738;2022-12-08T07:57:56;95643.38;;;2.83;82.20
31357;BME280;60001;48.404;11.738;2022-12-08T07:59:30;95643.97;;;2.85;82.08
31357;BME280;60001;48.404;11.738;2022-12-08T08:01:02;95652.56;;;2.86;81.79
31357;BME280;60001;48.404;11.738;2022-12-08T08:02:34;95644.16;;;2.84;81.69
31357;BME280;60001;48.404;11.738;2022-12-08T08:04:06;95647.13;;;2.87;81.86
31357;BME280;60001;48.404;11.738;2022-12-08T08:05:38;95656.19;;;2.85;81.09
31357;BME280;60001;48.404;11.738;2022-12-08T08:07:10;95651.78;;;2.85;81.56
31357;BME280;60001;48.404;11.738;2022-12-08T08:08:41;95653.00;;;2.83;81.24
31357;BME280;60001;48.404;11.738;2022-12-08T08:10:13;95649.19;;;2.85;81.50
31357;BME280;60001;48.404;11.738;2022-12-08T08:11:45;95652.56;;;2.86;80.92
31357;BME280;60001;48.404;11.738;2022-12-08T08:13:17;95651.78;;;2.85;81.07
31357;BME280;60001;48.404;11.738;2022-12-08T08:14:50;95657.13;;;2.90;81.76
31357;BME280;60001;48.404;11.738;2022-12-08T08:16:22;95642.06;;;2.92;81.73
31357;BME280;60001;48.404;11.738;2022-12-08T08:17:54;95645.25;;;2.94;80.76
31357;BME280;60001;48.404;11.738;2022-12-08T08:19:26;95648.50;;;2.90;81.36
31357;BME280;60001;48.404;11.738;2022-12-08T08:20:58;95645.25;;;2.94;80.92
31357;BME280;60001;48.404;11.738;2022-12-08T08:22:29;95654.00;;;3.00;81.33
31357;BME280;60001;48.404;11.738;2022-12-08T08:24:01;95646.75;;;3.02;80.94
31357;BME280;60001;48.404;11.738;2022-12-08T08:25:33;95652.53;;;3.04;81.06